createdAt,value
2022-12-23T00:00:38.403Z,0.13
2022-12-23T00:03:05.525Z,0.06
2022-12-23T00:05:38.151Z,-0.05
2022-12-23T00:08:06.271Z,0.06
2022-12-23T00:10:34.405Z,0.05
2022-12-23T00:13:19.530Z,0.06
2022-12-23T00:15:46.403Z,0.11
2022-12-23T00:18:13.254Z,0.04
2022-12-23T00:20:40.191Z,0.13
2022-12-23T00:23:07.196Z,0.12
2022-12-23T00:25:40.653Z,0.23
2022-12-23T00:28:11.714Z,0.29
2022-12-23T00:30:46.300Z,0.27
2022-12-23T00:33:15.034Z,0.30
2022-12-23T00:35:43.631Z,0.31
2022-12-23T00:38:11.102Z,0.41
2022-12-23T00:40:56.630Z,0.37
2022-12-23T00:43:23.439Z,0.49
2022-12-23T00:45:50.377Z,0.56
2022-12-23T00:48:36.066Z,0.68
2022-12-23T00:51:02.943Z,0.72
2022-12-23T00:53:30.071Z,0.78
2022-12-23T00:55:56.942Z,0.81
2022-12-23T00:58:23.830Z,0.79
2022-12-23T01:01:11.601Z,0.69
2022-12-23T01:03:57.348Z,0.70
2022-12-23T01:06:24.202Z,0.74
2022-12-23T01:08:51.029Z,0.79
2022-12-23T01:11:17.884Z,0.95
2022-12-23T01:13:44.765Z,1.05
2022-12-23T01:16:17.252Z,1.15
2022-12-23T01:18:44.923Z,1.20
2022-12-23T01:21:13.653Z,1.27
2022-12-23T01:23:40.745Z,1.28
2022-12-23T01:26:08.648Z,1.21
2022-12-23T01:28:36.435Z,0.95
2022-12-23T01:31:05.774Z,0.77
2022-12-23T01:33:33.211Z,0.79
2022-12-23T01:36:01.984Z,0.66
2022-12-23T01:38:29.901Z,0.66
2022-12-23T01:40:57.199Z,0.67
2022-12-23T01:43:24.362Z,0.70
2022-12-23T01:45:51.301Z,0.51
2022-12-23T01:48:37.775Z,0.34
2022-12-23T01:51:11.598Z,0.21
2022-12-23T01:53:42.586Z,0.29
2022-12-23T01:56:20.087Z,0.25
2022-12-23T01:59:32.452Z,0.29
2022-12-23T02:02:18.165Z,0.28
2022-12-23T02:04:45.434Z,0.38
2022-12-23T02:07:32.205Z,0.25
2022-12-23T02:09:59.343Z,0.17
2022-12-23T02:12:37.638Z,-0.09
2022-12-23T02:15:50.648Z,-0.09
2022-12-23T02:18:48.874Z,-0.11
2022-12-23T02:21:32.975Z,-0.16
2022-12-23T02:24:28.952Z,-0.05
2022-12-23T02:27:28.703Z,-0.09
2022-12-23T02:29:55.540Z,-0.39
2022-12-23T02:32:34.589Z,-0.07
2022-12-23T02:35:26.989Z,-0.07
2022-12-23T02:38:04.372Z,-0.03
2022-12-23T02:41:15.557Z,-0.04
2022-12-23T02:43:57.085Z,0.07
2022-12-23T02:46:36.453Z,0.11
2022-12-23T02:49:15.314Z,0.16
2022-12-23T02:51:49.051Z,0.13
2022-12-23T02:54:22.954Z,0.07
2022-12-23T02:56:52.690Z,0.20
2022-12-23T02:59:26.552Z,0.31
2022-12-23T03:01:54.966Z,0.36
2022-12-23T03:04:22.120Z,0.34
2022-12-23T03:06:52.810Z,0.46
2022-12-23T03:09:36.219Z,0.53
2022-12-23T03:12:22.593Z,0.60
2022-12-23T03:15:12.011Z,0.67
2022-12-23T03:18:05.126Z,0.76
2022-12-23T03:20:38.391Z,0.87
2022-12-23T03:23:18.891Z,0.91
2022-12-23T03:25:57.859Z,1.12
2022-12-23T03:28:40.589Z,1.30
2022-12-23T03:31:11.785Z,1.23
2022-12-23T03:33:42.493Z,1.30
2022-12-23T03:36:19.413Z,1.38
2022-12-23T03:38:49.323Z,1.32
2022-12-23T03:41:30.295Z,1.43
2022-12-23T03:44:08.968Z,1.37
2022-12-23T03:46:50.382Z,1.25
2022-12-23T03:49:23.659Z,1.35
2022-12-23T03:52:00.987Z,1.30
2022-12-23T03:54:34.737Z,1.30
2022-12-23T03:57:05.859Z,1.29
2022-12-23T03:59:36.206Z,1.27
2022-12-23T04:02:06.177Z,1.27
2022-12-23T04:05:27.053Z,1.11
2022-12-23T04:08:07.136Z,0.93
2022-12-23T04:10:34.782Z,1.00
2022-12-23T04:13:01.693Z,0.94
2022-12-23T04:15:29.340Z,0.82
2022-12-23T04:17:57.418Z,0.81
2022-12-23T04:23:45.853Z,0.75
2022-12-23T04:26:12.700Z,0.82
2022-12-23T04:28:39.546Z,0.74
2022-12-23T04:31:06.426Z,0.79
2022-12-23T04:33:33.303Z,0.70
2022-12-23T04:36:01.098Z,0.86
2022-12-23T04:38:28.089Z,0.85
2022-12-23T04:40:55.019Z,0.73
2022-12-23T04:43:21.856Z,0.72
2022-12-23T04:45:52.084Z,0.61
2022-12-23T04:48:19.490Z,0.69
2022-12-23T04:50:46.428Z,0.57
2022-12-23T04:53:13.278Z,0.60
2022-12-23T04:55:40.168Z,0.62
2022-12-23T04:58:07.139Z,0.63
2022-12-23T05:00:39.220Z,0.56
2022-12-23T05:03:07.064Z,0.65
2022-12-23T05:05:34.157Z,0.64
2022-12-23T05:08:08.900Z,0.54
2022-12-23T05:10:39.193Z,0.51
2022-12-23T05:13:06.056Z,0.53
2022-12-23T05:15:33.156Z,0.53
2022-12-23T05:18:00.045Z,0.56
2022-12-23T05:20:26.995Z,0.54
2022-12-23T05:22:54.074Z,0.54
2022-12-23T05:25:20.961Z,0.56
2022-12-23T05:27:47.796Z,0.52
2022-12-23T05:30:14.985Z,0.64
2022-12-23T05:32:41.816Z,0.64
2022-12-23T05:35:09.083Z,0.70
2022-12-23T05:37:36.081Z,0.70
2022-12-23T05:40:03.156Z,0.83
2022-12-23T05:42:31.035Z,0.86
2022-12-23T05:44:57.904Z,0.85
2022-12-23T05:47:24.745Z,0.96
2022-12-23T05:49:51.644Z,0.95
2022-12-23T05:52:18.486Z,0.99
2022-12-23T05:54:45.339Z,1.13
2022-12-23T05:57:12.220Z,1.18
2022-12-23T05:59:39.042Z,1.22
2022-12-23T06:02:06.124Z,1.33
2022-12-23T06:04:33.029Z,1.34
2022-12-23T06:06:59.903Z,1.47
2022-12-23T06:09:26.763Z,1.37
2022-12-23T06:11:53.562Z,1.40
2022-12-23T06:14:25.146Z,1.46
2022-12-23T06:16:55.498Z,1.20
2022-12-23T06:19:22.380Z,1.18
2022-12-23T06:21:49.263Z,1.19
2022-12-23T06:24:16.100Z,1.18
2022-12-23T06:26:43.087Z,1.07
2022-12-23T06:29:11.078Z,1.18
2022-12-23T06:31:37.947Z,1.34
2022-12-23T06:34:04.918Z,1.33
2022-12-23T06:36:31.761Z,1.23
2022-12-23T06:38:58.632Z,1.21
2022-12-23T06:41:25.520Z,1.21
2022-12-23T06:43:54.435Z,1.04
2022-12-23T06:46:21.712Z,1.16
2022-12-23T06:48:48.637Z,1.17
2022-12-23T06:51:15.531Z,1.25
2022-12-23T06:53:42.368Z,1.25
2022-12-23T06:56:09.270Z,1.07
2022-12-23T06:58:36.227Z,1.10
2022-12-23T07:01:03.346Z,1.06
2022-12-23T07:03:30.421Z,1.18
2022-12-23T07:05:57.955Z,1.34
2022-12-23T07:08:24.806Z,1.32
2022-12-23T07:10:58.694Z,1.20
2022-12-23T07:13:25.917Z,1.21
2022-12-23T07:15:53.020Z,1.44
2022-12-23T07:18:21.989Z,1.24
2022-12-23T07:20:49.605Z,1.33
2022-12-23T07:23:16.733Z,1.32
2022-12-23T07:25:43.914Z,1.26
2022-12-23T07:28:10.932Z,1.36
2022-12-23T07:30:37.837Z,1.48
2022-12-23T07:33:04.756Z,1.64
2022-12-23T07:35:31.683Z,1.70
2022-12-23T07:37:58.584Z,1.82
2022-12-23T07:40:26.951Z,1.82
2022-12-23T07:42:58.402Z,1.95
2022-12-23T07:45:27.332Z,2.22
2022-12-23T07:47:55.805Z,2.20
2022-12-23T07:50:23.064Z,2.24
2022-12-23T07:52:50.155Z,2.24
2022-12-23T07:55:17.031Z,2.20
2022-12-23T07:57:43.982Z,2.40
2022-12-23T08:00:12.417Z,2.52
2022-12-23T08:02:40.165Z,2.60
2022-12-23T08:05:08.041Z,2.62
2022-12-23T08:07:35.218Z,2.71
2022-12-23T08:10:02.462Z,2.81
2022-12-23T08:12:30.409Z,2.92
2022-12-23T08:14:57.320Z,3.08
2022-12-23T08:17:29.079Z,3.13
2022-12-23T08:19:57.196Z,3.17
2022-12-23T08:22:24.632Z,3.13
2022-12-23T08:24:52.669Z,3.35
2022-12-23T08:27:19.766Z,3.49
2022-12-23T08:29:46.786Z,3.28
2022-12-23T08:32:13.744Z,3.52
2022-12-23T08:34:40.801Z,3.15
2022-12-23T08:37:07.814Z,3.52
2022-12-23T08:39:34.750Z,3.49
2022-12-23T08:42:04.109Z,3.68
2022-12-23T08:44:32.612Z,3.91
2022-12-23T08:47:00.481Z,4.03
2022-12-23T08:49:30.957Z,4.29
2022-12-23T08:51:58.331Z,4.45
2022-12-23T08:54:25.699Z,4.59
2022-12-23T08:57:13.700Z,4.85
2022-12-23T08:59:40.566Z,5.04
2022-12-23T09:02:10.991Z,5.16
2022-12-23T09:04:38.238Z,5.26
2022-12-23T09:07:05.134Z,5.42
2022-12-23T09:09:32.065Z,5.55
2022-12-23T09:11:58.937Z,5.44
2022-12-23T09:14:25.884Z,5.54
2022-12-23T09:16:52.730Z,5.51
2022-12-23T09:19:19.627Z,5.68
2022-12-23T09:21:46.568Z,5.83
2022-12-23T09:24:14.111Z,5.90
2022-12-23T09:26:41.028Z,5.77
2022-12-23T09:29:07.908Z,5.86
2022-12-23T09:31:37.634Z,5.93
2022-12-23T09:34:05.707Z,5.94
2022-12-23T09:36:32.748Z,6.04
2022-12-23T09:38:59.720Z,6.14
2022-12-23T09:41:48.730Z,6.33
2022-12-23T09:44:37.397Z,6.37
2022-12-23T09:47:08.008Z,6.41
2022-12-23T09:49:38.894Z,6.62
2022-12-23T09:52:10.999Z,6.76
2022-12-23T09:54:56.333Z,6.63
2022-12-23T09:57:29.060Z,6.76
2022-12-23T10:00:06.980Z,6.87
2022-12-23T10:02:48.939Z,7.09
2022-12-23T10:05:31.499Z,7.04
2022-12-23T10:08:10.672Z,7.17
2022-12-23T10:11:10.643Z,7.27
2022-12-23T10:13:37.495Z,7.27
2022-12-23T10:16:09.681Z,7.39
2022-12-23T10:18:42.799Z,7.22
2022-12-23T10:21:32.954Z,7.45
2022-12-23T10:24:07.225Z,7.28
2022-12-23T10:26:48.734Z,7.31
2022-12-23T10:29:18.988Z,7.72
2022-12-23T10:32:18.711Z,7.97
2022-12-23T10:35:01.392Z,7.93
2022-12-23T10:37:33.031Z,7.93
2022-12-23T10:40:22.699Z,7.97
2022-12-23T10:43:08.640Z,8.07
2022-12-23T10:46:03.434Z,8.12
2022-12-23T10:48:41.683Z,8.06
2022-12-23T10:51:36.416Z,8.16
2022-12-23T10:54:12.003Z,8.08
2022-12-23T10:56:38.929Z,8.44
2022-12-23T10:59:07.239Z,8.46
2022-12-23T11:01:34.535Z,8.56
2022-12-23T11:04:13.790Z,8.74
2022-12-23T11:07:41.525Z,8.71
2022-12-23T11:10:05.766Z,8.82
2022-12-23T11:12:45.360Z,8.92
2022-12-23T11:15:41.529Z,9.01
2022-12-23T11:18:23.363Z,9.06
2022-12-23T11:24:39.500Z,9.23
2022-12-23T11:27:14.415Z,9.28
2022-12-23T11:29:48.165Z,9.40
2022-12-23T11:32:26.217Z,9.48
2022-12-23T11:34:55.232Z,9.48
2022-12-23T11:37:28.304Z,9.60
2022-12-23T11:39:55.562Z,9.50
2022-12-23T11:42:29.140Z,9.67
2022-12-23T11:44:59.591Z,9.60
2022-12-23T11:47:38.916Z,9.69
2022-12-23T11:50:39.534Z,9.96
2022-12-23T11:53:24.092Z,9.97
2022-12-23T11:56:07.616Z,9.90
2022-12-23T11:58:59.763Z,9.99
2022-12-23T12:01:26.945Z,9.78
2022-12-23T12:04:07.807Z,10.02
2022-12-23T12:06:35.265Z,9.91
2022-12-23T12:09:07.107Z,9.98
2022-12-23T12:11:44.696Z,9.81
2022-12-23T12:14:21.567Z,10.24
2022-12-23T12:17:17.715Z,10.33
2022-12-23T12:19:55.549Z,10.39
2022-12-23T12:22:48.176Z,10.49
2022-12-23T12:25:18.116Z,10.54
2022-12-23T12:27:52.425Z,10.56
2022-12-23T12:30:21.062Z,10.56
2022-12-23T12:32:59.229Z,10.72
2022-12-23T12:35:37.836Z,10.73
2022-12-23T12:38:13.385Z,10.77
2022-12-23T12:40:47.776Z,10.76
2022-12-23T12:43:31.572Z,10.76
2022-12-23T12:46:23.813Z,10.73
2022-12-23T12:49:10.870Z,10.89
2022-12-23T12:51:49.234Z,10.90
2022-12-23T12:54:37.356Z,10.86
2022-12-23T12:57:04.350Z,10.84
2022-12-23T12:59:38.784Z,10.85
2022-12-23T13:02:11.863Z,10.78
2022-12-23T13:05:26.474Z,10.85
2022-12-23T13:08:23.555Z,10.82
2022-12-23T13:10:59.423Z,10.80
2022-12-23T13:13:35.165Z,10.90
2022-12-23T13:16:20.030Z,10.97
2022-12-23T13:19:01.812Z,10.85
2022-12-23T13:22:00.656Z,10.73
2022-12-23T13:24:37.195Z,10.84
2022-12-23T13:27:42.573Z,10.91
2022-12-23T13:30:14.933Z,10.87
2022-12-23T13:32:53.815Z,10.94
2022-12-23T13:35:43.050Z,10.78
2022-12-23T13:38:47.241Z,10.81
2022-12-23T13:41:35.598Z,10.80
2022-12-23T13:44:05.523Z,10.78
2022-12-23T13:47:06.095Z,10.74
2022-12-23T13:49:51.072Z,10.84
2022-12-23T13:52:34.138Z,10.74
2022-12-23T13:55:10.013Z,10.55
2022-12-23T13:57:45.760Z,10.43
2022-12-23T14:00:18.699Z,10.26
2022-12-23T14:02:57.849Z,10.08
2022-12-23T14:05:45.400Z,10.07
2022-12-23T14:08:18.330Z,10.04
2022-12-23T14:11:03.997Z,9.93
2022-12-23T14:13:39.120Z,9.88
2022-12-23T14:16:21.584Z,9.85
2022-12-23T14:19:07.022Z,9.83
2022-12-23T14:22:11.155Z,9.75
2022-12-23T14:25:15.159Z,9.74
2022-12-23T14:28:11.814Z,9.70
2022-12-23T14:30:45.896Z,9.66
2022-12-23T14:33:23.017Z,9.58
2022-12-23T14:35:58.215Z,9.47
2022-12-23T14:38:30.857Z,9.44
2022-12-23T14:41:22.740Z,9.56
2022-12-23T14:43:55.907Z,9.50
2022-12-23T14:46:34.776Z,9.48
2022-12-23T14:49:30.010Z,9.46
2022-12-23T14:51:51.662Z,9.42
2022-12-23T14:54:39.071Z,9.31
2022-12-23T14:57:15.935Z,9.09
2022-12-23T14:59:52.384Z,8.92
2022-12-23T15:02:29.731Z,9.16
2022-12-23T15:04:58.747Z,9.16
2022-12-23T15:07:40.720Z,9.23
2022-12-23T15:10:23.203Z,9.23
2022-12-23T15:12:55.363Z,9.11
2022-12-23T15:15:25.756Z,9.00
2022-12-23T15:18:13.129Z,8.90
2022-12-23T15:20:40.204Z,8.88
2022-12-23T15:23:14.418Z,8.85
2022-12-23T15:25:46.155Z,8.74
2022-12-23T15:28:22.613Z,8.83
2022-12-23T15:30:55.468Z,8.84
2022-12-23T15:34:01.389Z,8.84
2022-12-23T15:36:14.918Z,8.91
2022-12-23T15:38:42.849Z,8.87
2022-12-23T15:41:17.313Z,8.87
2022-12-23T15:43:44.860Z,8.92
2022-12-23T15:46:26.797Z,8.97
2022-12-23T15:48:56.759Z,8.89
2022-12-23T15:52:06.467Z,8.83
2022-12-23T15:54:33.072Z,8.89
2022-12-23T15:57:02.220Z,8.87
2022-12-23T15:59:38.332Z,8.81
2022-12-23T16:05:08.891Z,8.81
2022-12-23T16:07:38.795Z,8.78
2022-12-23T16:10:15.167Z,8.72
2022-12-23T16:12:43.258Z,8.69
2022-12-23T16:15:39.417Z,8.67
2022-12-23T16:18:22.134Z,8.59
2022-12-23T16:20:50.347Z,8.62
2022-12-23T16:23:17.869Z,8.62
2022-12-23T16:25:50.310Z,8.59
2022-12-23T16:28:28.031Z,8.61
2022-12-23T16:30:58.666Z,8.52
2022-12-23T16:33:31.315Z,8.48
2022-12-23T16:36:26.397Z,8.51
2022-12-23T16:38:53.505Z,8.23
2022-12-23T16:41:20.646Z,8.14
2022-12-23T16:43:52.090Z,8.27
2022-12-23T16:46:21.537Z,8.27
2022-12-23T16:49:00.255Z,8.25
2022-12-23T16:51:28.958Z,8.33
2022-12-23T16:53:57.774Z,8.21
2022-12-23T16:56:29.893Z,8.24
2022-12-23T16:58:56.789Z,8.26
2022-12-23T17:01:27.656Z,8.23
2022-12-23T17:03:55.982Z,8.19
2022-12-23T17:06:24.116Z,8.26
2022-12-23T17:08:53.219Z,8.32
2022-12-23T17:11:29.138Z,8.21
2022-12-23T17:14:03.104Z,8.18
2022-12-23T17:16:31.168Z,8.14
2022-12-23T17:18:58.830Z,8.21
2022-12-23T17:21:33.369Z,8.01
2022-12-23T17:24:14.145Z,8.05
2022-12-23T17:26:40.994Z,7.96
2022-12-23T17:29:11.442Z,7.91
2022-12-23T17:31:43.341Z,7.87
2022-12-23T17:34:22.241Z,7.87
2022-12-23T17:36:50.742Z,7.61
2022-12-23T17:39:19.219Z,7.67
2022-12-23T17:41:48.748Z,7.60
2022-12-23T17:44:17.123Z,7.66
2022-12-23T17:46:45.717Z,7.65
2022-12-23T17:49:13.274Z,7.71
2022-12-23T17:51:41.728Z,7.66
2022-12-23T17:54:24.139Z,7.80
2022-12-23T17:56:51.628Z,7.73
2022-12-23T17:59:19.610Z,7.55
2022-12-23T18:01:46.752Z,7.77
2022-12-23T18:04:13.721Z,7.69
2022-12-23T18:06:40.653Z,7.44
2022-12-23T18:09:07.508Z,7.44
2022-12-23T18:11:38.736Z,7.49
2022-12-23T18:14:09.922Z,7.37
2022-12-23T18:16:39.353Z,7.34
2022-12-23T18:19:15.124Z,7.27
2022-12-23T18:21:42.001Z,7.41
2022-12-23T18:24:10.349Z,7.44
2022-12-23T18:26:37.635Z,7.33
2022-12-23T18:29:04.771Z,7.27
2022-12-23T18:31:32.579Z,7.32
2022-12-23T18:34:02.383Z,7.31
2022-12-23T18:36:32.326Z,7.33
2022-12-23T18:38:59.920Z,7.43
2022-12-23T18:41:27.499Z,7.46
2022-12-23T18:43:54.785Z,7.35
2022-12-23T18:46:22.062Z,7.29
2022-12-23T18:48:49.598Z,7.04
2022-12-23T18:51:18.922Z,7.04
2022-12-23T18:53:47.569Z,6.96
2022-12-23T18:56:20.112Z,6.81
2022-12-23T18:58:50.172Z,6.88
2022-12-23T19:01:18.645Z,6.82
2022-12-23T19:03:47.539Z,6.87
2022-12-23T19:06:15.647Z,6.81
2022-12-23T19:08:43.235Z,6.78
2022-12-23T19:11:15.247Z,6.76
2022-12-23T19:13:42.272Z,6.68
2022-12-23T19:16:14.088Z,6.71
2022-12-23T19:18:41.135Z,6.90
2022-12-23T19:21:10.519Z,6.87
2022-12-23T19:23:39.089Z,6.88
2022-12-23T19:26:06.359Z,6.81
2022-12-23T19:28:33.868Z,6.69
2022-12-23T19:31:00.836Z,6.70
2022-12-23T19:33:27.746Z,6.73
2022-12-23T19:35:54.687Z,6.51
2022-12-23T19:38:21.590Z,6.52
2022-12-23T19:40:57.088Z,6.39
2022-12-23T19:43:24.115Z,6.22
2022-12-23T19:45:58.736Z,6.28
2022-12-23T19:48:26.154Z,6.30
2022-12-23T19:51:00.091Z,6.26
2022-12-23T19:53:27.831Z,6.15
2022-12-23T19:56:04.023Z,6.04
2022-12-23T19:58:36.397Z,6.13
2022-12-23T20:01:07.592Z,6.09
2022-12-23T20:03:34.540Z,6.16
2022-12-23T20:06:01.973Z,6.06
2022-12-23T20:08:28.854Z,5.99
2022-12-23T20:11:12.638Z,5.90
2022-12-23T20:13:42.945Z,5.75
2022-12-23T20:16:10.832Z,5.54
2022-12-23T20:18:38.375Z,5.29
2022-12-23T20:21:06.992Z,5.49
2022-12-23T20:23:34.282Z,5.53
2022-12-23T20:26:01.301Z,5.67
2022-12-23T20:28:28.465Z,5.81
2022-12-23T20:31:15.010Z,5.81
2022-12-23T20:33:44.827Z,5.68
2022-12-23T20:36:14.142Z,5.59
2022-12-23T20:38:43.532Z,5.42
2022-12-23T20:41:13.296Z,5.40
2022-12-23T20:43:40.509Z,5.30
2022-12-23T20:46:10.403Z,5.38
2022-12-23T20:48:40.251Z,5.41
2022-12-23T20:51:19.415Z,5.39
2022-12-23T20:53:46.598Z,5.43
2022-12-23T20:56:16.172Z,5.26
2022-12-23T20:58:55.517Z,5.11
2022-12-23T21:01:44.472Z,4.97
2022-12-23T21:04:16.014Z,4.88
2022-12-23T21:06:43.825Z,4.77
2022-12-23T21:09:13.450Z,4.71
2022-12-23T21:11:43.447Z,4.68
2022-12-23T21:14:13.030Z,4.62
2022-12-23T21:16:40.759Z,4.53
2022-12-23T21:19:09.722Z,4.65
2022-12-23T21:21:36.843Z,4.52
2022-12-23T21:24:06.295Z,4.54
2022-12-23T21:26:34.612Z,4.43
2022-12-23T21:29:04.153Z,4.55
2022-12-23T21:31:33.203Z,4.63
2022-12-23T21:34:00.326Z,4.62
2022-12-23T21:36:31.138Z,4.82
2022-12-23T21:38:59.253Z,4.67
2022-12-23T21:41:29.142Z,4.77
2022-12-23T21:43:57.337Z,4.68
2022-12-23T21:46:25.547Z,4.79
2022-12-23T21:48:52.764Z,4.87
2022-12-23T21:51:23.384Z,4.80
2022-12-23T21:53:52.203Z,4.89
2022-12-23T21:56:21.793Z,4.77
2022-12-23T21:58:48.689Z,4.79
2022-12-23T22:01:18.423Z,4.80
2022-12-23T22:03:47.949Z,4.67
2022-12-23T22:06:29.838Z,4.48
2022-12-23T22:08:57.017Z,4.44
2022-12-23T22:11:29.258Z,4.37
2022-12-23T22:13:57.577Z,4.39
2022-12-23T22:16:26.126Z,4.21
2022-12-23T22:18:54.194Z,4.14
2022-12-23T22:21:23.187Z,4.01
2022-12-23T22:23:51.958Z,3.90
2022-12-23T22:26:25.461Z,3.84
2022-12-23T22:28:57.354Z,3.63
2022-12-23T22:31:39.911Z,3.53
2022-12-23T22:34:09.117Z,3.52
2022-12-23T22:36:36.494Z,3.48
2022-12-23T22:39:03.992Z,3.50
2022-12-23T22:41:32.116Z,3.51
2022-12-23T22:43:59.524Z,3.52
2022-12-23T22:46:27.113Z,3.61
2022-12-23T22:48:54.456Z,3.73
2022-12-23T22:51:24.760Z,3.48
2022-12-23T22:53:51.998Z,3.31
2022-12-23T22:56:19.740Z,3.15
2022-12-23T22:58:47.119Z,2.98
2022-12-23T23:01:32.539Z,2.99
2022-12-23T23:04:02.128Z,2.93
2022-12-23T23:06:30.861Z,3.03
2022-12-23T23:08:58.355Z,2.91
2022-12-23T23:11:27.069Z,3.04
2022-12-23T23:13:54.814Z,3.14
2022-12-23T23:16:22.420Z,3.21
2022-12-23T23:18:50.221Z,3.29
2022-12-23T23:21:17.133Z,3.34
2022-12-23T23:23:44.267Z,3.12
2022-12-23T23:26:12.026Z,3.21
2022-12-23T23:28:39.795Z,3.26
2022-12-23T23:33:55.020Z,3.27
2022-12-23T23:36:21.968Z,3.37
2022-12-23T23:38:48.887Z,3.43
2022-12-23T23:41:22.235Z,3.34
2022-12-23T23:43:49.970Z,3.16
2022-12-23T23:46:16.864Z,3.07
2022-12-23T23:48:43.841Z,2.98
2022-12-23T23:51:10.705Z,2.95
2022-12-23T23:53:37.577Z,3.03
2022-12-23T23:56:07.080Z,3.04
2022-12-23T23:58:35.293Z,3.12
